Time;durP1;ratioP1;P1;durP2;ratioP2;P2;SDS_P1;SDS_P2;PMS_P1;PMS_P2;Temp;Humidity;BMP_temperature;BMP_pressure;BME280_temperature;BME280_humidity;BME280_pressure;Samples;Min_cycle;Max_cycle;Signal;HPM_P1;HPM_P2
2023/06/21 00:00:15;;;;;;;15.65;6.25;;;21.40;99.90;;;;;;4994806;28;20061;-81
2023/06/21 00:02:45;;;;;;;14.20;5.70;;;21.30;99.90;;;;;;4994019;28;20022;-81
2023/06/21 00:05:11;;;;;;;12.77;6.00;;;21.30;99.90;;;;;;4992990;28;20050;-81
2023/06/21 00:07:41;;;;;;;12.68;5.20;;;21.20;99.90;;;;;;4993011;28;20034;-80
2023/06/21 00:10:10;;;;;;;14.35;5.60;;;21.20;99.90;;;;;;4993160;28;20414;-81
2023/06/21 00:12:36;;;;;;;15.23;6.85;;;21.20;99.90;;;;;;4992925;28;20029;-81
2023/06/21 00:15:02;;;;;;;11.00;6.00;;;21.20;99.90;;;;;;4991931;28;20089;-81
2023/06/21 00:17:28;;;;;;;15.00;5.93;;;21.10;99.90;;;;;;4991338;28;20042;-81
2023/06/21 00:19:55;;;;;;;14.05;6.00;;;21.10;99.90;;;;;;4990258;28;20510;-81
2023/06/21 00:22:22;;;;;;;10.00;5.60;;;21.10;99.90;;;;;;4990836;28;20034;-81
2023/06/21 00:24:52;;;;;;;13.85;6.40;;;21.10;99.90;;;;;;4989785;28;20470;-81
2023/06/21 00:27:18;;;;;;;12.18;5.53;;;21.10;99.90;;;;;;4988975;28;20146;-81
2023/06/21 00:29:44;;;;;;;13.18;6.18;;;21.10;99.90;;;;;;4990325;28;20030;-81
2023/06/21 00:32:09;;;;;;;12.65;6.07;;;21.10;99.90;;;;;;4993328;28;20079;-81
2023/06/21 00:34:35;;;;;;;12.38;6.40;;;21.00;99.90;;;;;;4993498;28;20026;-81
2023/06/21 00:37:04;;;;;;;14.38;6.78;;;21.00;99.90;;;;;;4993670;28;20026;-81
2023/06/21 00:39:30;;;;;;;15.07;7.10;;;20.90;99.90;;;;;;4992999;28;20037;-81
2023/06/21 00:41:56;;;;;;;9.50;6.25;;;20.90;99.90;;;;;;4994222;28;20034;-81
2023/06/21 00:44:21;;;;;;;17.38;7.05;;;20.80;99.90;;;;;;4994196;28;20018;-81
2023/06/21 00:46:49;;;;;;;13.15;6.25;;;20.80;99.90;;;;;;4992857;28;20034;-81
2023/06/21 00:49:14;;;;;;;11.77;6.53;;;20.80;99.90;;;;;;4993731;28;20034;-81
2023/06/21 00:51:41;;;;;;;14.90;7.15;;;20.70;99.90;;;;;;4993691;28;20039;-81
2023/06/21 00:54:07;;;;;;;14.60;5.85;;;20.70;99.90;;;;;;4993624;28;20022;-81
2023/06/21 00:56:33;;;;;;;15.13;6.35;;;20.60;99.90;;;;;;4992499;28;20041;-80
2023/06/21 00:58:59;;;;;;;17.52;6.90;;;20.60;99.90;;;;;;4992998;28;20034;-81
2023/06/21 01:01:26;;;;;;;16.70;6.88;;;20.60;99.90;;;;;;4992076;28;20026;-81
2023/06/21 01:03:53;;;;;;;10.63;6.80;;;20.50;99.90;;;;;;4992765;28;20525;-81
2023/06/21 01:06:33;;;;;;;12.43;7.30;;;20.50;99.90;;;;;;4991447;28;20054;-81
2023/06/21 01:09:13;;;;;;;14.85;7.05;;;20.50;99.90;;;;;;4992870;28;20069;-81
2023/06/21 01:11:49;;;;;;;15.55;7.03;;;20.40;99.90;;;;;;4993664;28;20025;-80
2023/06/21 01:14:27;;;;;;;16.13;7.57;;;20.40;99.90;;;;;;4992795;28;20038;-81
2023/06/21 01:16:55;;;;;;;12.20;6.10;;;20.30;99.90;;;;;;4991644;28;20034;-81
2023/06/21 01:19:30;;;;;;;16.67;7.07;;;20.30;99.90;;;;;;4993160;28;20034;-81
2023/06/21 01:21:59;;;;;;;15.80;6.88;;;20.30;99.90;;;;;;4993155;28;21345;-80
2023/06/21 01:24:46;;;;;;;13.48;6.53;;;20.30;99.90;;;;;;4993031;28;20033;-81
2023/06/21 01:27:27;;;;;;;12.32;6.13;;;20.30;99.90;;;;;;4991838;28;20069;-81
2023/06/21 01:29:57;;;;;;;14.60;6.47;;;20.30;99.90;;;;;;4992028;28;20050;-81
2023/06/21 01:32:26;;;;;;;17.70;6.68;;;20.30;99.90;;;;;;4989491;28;20038;-81
2023/06/21 01:34:53;;;;;;;18.67;7.00;;;20.20;99.90;;;;;;4988086;28;20026;-81
2023/06/21 01:37:19;;;;;;;13.32;6.90;;;20.20;99.90;;;;;;4987992;28;20038;-81
2023/06/21 01:39:44;;;;;;;13.07;5.93;;;20.20;99.90;;;;;;4990448;28;20139;-81
2023/06/21 01:42:10;;;;;;;13.13;6.63;;;20.20;99.90;;;;;;4991284;28;20577;-81
2023/06/21 01:44:36;;;;;;;13.68;6.57;;;20.20;99.90;;;;;;4990890;28;20036;-80
2023/06/21 01:47:02;;;;;;;17.05;6.68;;;20.20;99.90;;;;;;4991845;28;21105;-81
2023/06/21 01:49:30;;;;;;;14.50;5.90;;;20.20;99.90;;;;;;4991898;28;20025;-81
2023/06/21 01:51:56;;;;;;;13.20;6.50;;;20.10;99.90;;;;;;4990306;28;20116;-80
2023/06/21 01:54:24;;;;;;;13.07;5.60;;;20.10;99.90;;;;;;4991910;28;20038;-81
2023/06/21 01:56:52;;;;;;;13.02;6.32;;;20.10;99.90;;;;;;4990746;28;20033;-81
2023/06/21 01:59:18;;;;;;;14.05;6.35;;;20.10;99.90;;;;;;4991501;28;20077;-81
2023/06/21 02:01:50;;;;;;;11.50;6.65;;;20.10;99.90;;;;;;4990890;28;20030;-81
2023/06/21 02:04:16;;;;;;;13.70;6.18;;;20.10;99.90;;;;;;4991393;28;20480;-81
2023/06/21 02:06:42;;;;;;;16.80;6.80;;;20.00;99.90;;;;;;4991296;28;20088;-81
2023/06/21 02:09:09;;;;;;;13.32;5.93;;;20.00;99.90;;;;;;4990691;28;20045;-81
2023/06/21 02:11:36;;;;;;;12.95;6.47;;;20.00;99.90;;;;;;4990675;28;20093;-81
2023/06/21 02:14:02;;;;;;;12.98;7.20;;;20.00;99.90;;;;;;4991554;28;20076;-81
2023/06/21 02:16:30;;;;;;;13.10;6.75;;;19.90;99.90;;;;;;4990345;28;20037;-81
2023/06/21 02:18:55;;;;;;;11.98;6.10;;;19.90;99.90;;;;;;4991270;28;20026;-81
2023/06/21 02:21:22;;;;;;;11.27;6.00;;;19.90;99.90;;;;;;4991227;28;20022;-81
2023/06/21 02:23:48;;;;;;;14.85;6.15;;;19.80;99.90;;;;;;4991545;28;20034;-81
2023/06/21 02:26:14;;;;;;;12.98;6.10;;;19.80;99.90;;;;;;4990772;28;21370;-81
2023/06/21 02:28:41;;;;;;;14.15;6.28;;;19.70;99.90;;;;;;4991466;28;20077;-81
2023/06/21 02:31:06;;;;;;;14.95;6.70;;;19.70;99.90;;;;;;4990728;28;20034;-81
2023/06/21 02:33:32;;;;;;;12.15;6.40;;;19.70;99.90;;;;;;4990984;28;20035;-81
2023/06/21 02:35:57;;;;;;;10.48;6.22;;;19.70;99.90;;;;;;4990906;28;20036;-81
2023/06/21 02:38:25;;;;;;;15.27;6.63;;;19.60;99.90;;;;;;4991201;28;20096;-81
2023/06/21 02:40:51;;;;;;;13.32;6.68;;;19.60;99.90;;;;;;4990556;28;21379;-81
2023/06/21 02:43:17;;;;;;;14.25;6.88;;;19.60;99.90;;;;;;4990927;28;20058;-81
2023/06/21 02:45:42;;;;;;;12.48;6.78;;;19.60;99.90;;;;;;4990712;28;20236;-81
2023/06/21 02:48:08;;;;;;;12.48;6.70;;;19.50;99.90;;;;;;4991738;28;20030;-81
2023/06/21 02:50:33;;;;;;;14.77;6.10;;;19.50;99.90;;;;;;4991551;28;20030;-81
2023/06/21 02:52:59;;;;;;;15.05;6.60;;;19.40;99.90;;;;;;4990737;28;20715;-81
2023/06/21 02:55:24;;;;;;;13.55;6.65;;;19.40;99.90;;;;;;4989744;28;20576;-81
2023/06/21 02:57:50;;;;;;;13.57;6.28;;;19.40;99.90;;;;;;4991062;28;20030;-81
2023/06/21 03:00:22;;;;;;;13.45;6.00;;;19.30;99.90;;;;;;4989982;28;20079;-81
2023/06/21 03:02:49;;;;;;;10.52;5.47;;;19.30;99.90;;;;;;4990856;28;20041;-81
2023/06/21 03:05:15;;;;;;;13.70;5.60;;;19.30;99.90;;;;;;4990192;28;20046;-81
2023/06/21 03:07:44;;;;;;;11.63;5.68;;;19.30;99.90;;;;;;4991159;28;20053;-81
2023/06/21 03:10:14;;;;;;;15.73;6.72;;;19.20;99.90;;;;;;4991623;28;20038;-81
2023/06/21 03:12:44;;;;;;;13.63;6.07;;;19.20;99.90;;;;;;4991086;28;20104;-81
2023/06/21 03:15:11;;;;;;;15.25;6.13;;;19.20;99.90;;;;;;4990623;28;20088;-81
2023/06/21 03:17:37;;;;;;;12.30;6.45;;;19.20;99.90;;;;;;4989803;28;20044;-81
2023/06/21 03:20:12;;;;;;;11.70;6.50;;;19.10;99.90;;;;;;4988126;28;20038;-81
2023/06/21 03:22:42;;;;;;;14.32;5.90;;;19.10;99.90;;;;;;4990650;28;20498;-81
2023/06/21 03:25:13;;;;;;;14.95;6.43;;;19.10;99.90;;;;;;4991216;28;20049;-81
2023/06/21 03:27:39;;;;;;;13.95;6.15;;;19.10;99.90;;;;;;4994554;28;20133;-81
2023/06/21 03:30:07;;;;;;;14.82;6.93;;;19.00;99.90;;;;;;4994565;28;20039;-81
2023/06/21 03:32:33;;;;;;;14.93;6.75;;;19.00;99.90;;;;;;4992586;28;20410;-80
2023/06/21 03:34:59;;;;;;;19.08;6.85;;;19.00;99.90;;;;;;4992663;28;20033;-81
2023/06/21 03:37:27;;;;;;;12.10;5.80;;;18.90;99.90;;;;;;4992879;28;20380;-81
2023/06/21 03:39:53;;;;;;;12.57;6.18;;;18.90;99.90;;;;;;4994041;28;20833;-81
2023/06/21 03:42:18;;;;;;;16.58;6.28;;;18.90;99.90;;;;;;4992721;28;20034;-81
2023/06/21 03:44:44;;;;;;;13.40;7.18;;;18.80;99.90;;;;;;4993235;28;20494;-81
2023/06/21 03:47:11;;;;;;;11.00;6.43;;;18.80;99.90;;;;;;4992530;28;20030;-80
2023/06/21 03:49:38;;;;;;;12.02;6.82;;;18.70;99.90;;;;;;4993456;28;20030;-81
2023/06/21 03:52:04;;;;;;;13.35;7.18;;;18.70;99.90;;;;;;4991828;28;20045;-81
2023/06/21 03:54:29;;;;;;;13.05;7.55;;;18.70;99.90;;;;;;4991867;28;20038;-81
2023/06/21 03:56:55;;;;;;;14.63;7.25;;;18.70;99.90;;;;;;4990105;28;20100;-81
2023/06/21 03:59:20;;;;;;;16.95;7.78;;;18.70;99.90;;;;;;4990816;28;20045;-81
2023/06/21 04:01:46;;;;;;;13.88;7.47;;;18.70;99.90;;;;;;4988836;28;20034;-81
2023/06/21 04:04:13;;;;;;;19.00;8.52;;;18.60;99.90;;;;;;4992407;28;20034;-81
2023/06/21 04:06:38;;;;;;;12.02;7.53;;;18.60;99.90;;;;;;4993598;28;20219;-80
2023/06/21 04:09:05;;;;;;;15.63;7.78;;;18.60;99.90;;;;;;4993196;28;20065;-81
2023/06/21 04:11:31;;;;;;;14.07;8.18;;;18.60;99.90;;;;;;4994256;28;21469;-82
2023/06/21 04:13:56;;;;;;;11.18;6.50;;;18.60;99.90;;;;;;4992611;28;20029;-82
2023/06/21 04:16:22;;;;;;;13.40;7.53;;;18.60;99.90;;;;;;4993819;28;20068;-82
2023/06/21 04:18:48;;;;;;;11.98;6.55;;;18.60;99.90;;;;;;4993906;28;20034;-82
2023/06/21 04:21:13;;;;;;;14.85;7.80;;;18.60;99.90;;;;;;4993154;28;20033;-82
2023/06/21 04:23:40;;;;;;;13.40;8.77;;;18.70;99.90;;;;;;4993719;28;21332;-82
2023/06/21 04:26:06;;;;;;;14.93;7.97;;;18.70;99.90;;;;;;4993619;28;20034;-82
2023/06/21 04:28:32;;;;;;;13.02;7.45;;;18.70;99.90;;;;;;4995193;28;20026;-81
2023/06/21 04:30:58;;;;;;;15.57;7.82;;;18.80;99.90;;;;;;4993704;28;20097;-81
2023/06/21 04:33:24;;;;;;;13.75;7.90;;;18.80;99.90;;;;;;4992315;28;20160;-82
2023/06/21 04:35:50;;;;;;;16.60;8.13;;;18.80;99.90;;;;;;4992519;28;20049;-82
2023/06/21 04:38:15;;;;;;;12.93;7.85;;;18.90;99.90;;;;;;4992186;28;20546;-82
2023/06/21 04:40:41;;;;;;;13.18;8.52;;;18.90;99.90;;;;;;4992984;28;20030;-82
2023/06/21 04:43:07;;;;;;;12.00;8.50;;;19.00;99.90;;;;;;4993088;28;20481;-82
2023/06/21 04:45:33;;;;;;;14.68;7.93;;;19.00;99.90;;;;;;4993326;28;20042;-79
2023/06/21 04:47:59;;;;;;;14.60;8.07;;;19.10;99.90;;;;;;4991756;28;20485;-80
2023/06/21 04:50:25;;;;;;;17.75;8.05;;;19.10;99.90;;;;;;4991208;28;20021;-79
2023/06/21 04:52:57;;;;;;;12.13;7.13;;;19.10;99.90;;;;;;4989360;28;20042;-79
2023/06/21 04:55:23;;;;;;;11.13;7.20;;;19.20;99.90;;;;;;4989821;28;20113;-79
2023/06/21 04:57:50;;;;;;;19.48;8.60;;;19.20;99.90;;;;;;4991879;28;20033;-80
2023/06/21 05:00:16;;;;;;;11.52;7.43;;;19.30;99.90;;;;;;4989599;28;20125;-80
2023/06/21 05:02:42;;;;;;;17.27;8.00;;;19.30;99.90;;;;;;4987118;28;20025;-80
2023/06/21 05:05:08;;;;;;;19.80;8.45;;;19.40;99.90;;;;;;4986217;28;20119;-79
2023/06/21 05:07:33;;;;;;;15.32;8.40;;;19.50;99.90;;;;;;4987693;28;20034;-78
2023/06/21 05:09:59;;;;;;;23.58;9.07;;;19.50;99.90;;;;;;4987581;28;20161;-77
2023/06/21 05:12:24;;;;;;;15.15;8.57;;;19.60;99.90;;;;;;4984787;28;20501;-76
2023/06/21 05:14:50;;;;;;;17.05;8.38;;;19.70;99.90;;;;;;4985554;28;20458;-76
2023/06/21 05:17:16;;;;;;;15.30;7.72;;;19.80;99.90;;;;;;4986970;28;20501;-78
2023/06/21 05:19:42;;;;;;;17.75;8.50;;;19.90;99.90;;;;;;4986624;28;20031;-79
2023/06/21 05:22:08;;;;;;;11.45;7.70;;;19.90;99.90;;;;;;4993811;28;20037;-82
2023/06/21 05:24:33;;;;;;;14.75;7.32;;;20.00;99.90;;;;;;4989821;28;20018;-83
2023/06/21 05:26:59;;;;;;;15.63;7.68;;;20.10;99.90;;;;;;4996738;28;20725;-82
2023/06/21 05:29:25;;;;;;;13.35;7.38;;;20.20;99.90;;;;;;5009861;28;20465;-83
2023/06/21 05:31:51;;;;;;;15.50;7.38;;;20.40;99.90;;;;;;5003740;28;20030;-84
2023/06/21 05:34:16;;;;;;;14.68;7.50;;;20.40;99.90;;;;;;4985894;28;20038;-81
2023/06/21 05:36:42;;;;;;;16.23;8.27;;;20.60;99.90;;;;;;4987143;28;20030;-83
2023/06/21 05:39:08;;;;;;;13.73;7.45;;;20.70;99.90;;;;;;4994808;28;20034;-82
2023/06/21 05:41:33;;;;;;;13.02;7.85;;;20.80;99.90;;;;;;5009348;28;20034;-83
2023/06/21 05:43:59;;;;;;;13.73;8.05;;;20.90;99.90;;;;;;4998440;28;20113;-81
2023/06/21 05:46:24;;;;;;;17.50;7.80;;;21.00;99.90;;;;;;5000873;28;20042;-82
2023/06/21 05:48:50;;;;;;;11.75;7.18;;;21.10;99.90;;;;;;5001253;28;20023;-83
2023/06/21 05:51:15;;;;;;;15.10;7.90;;;21.20;99.90;;;;;;4995827;28;20042;-79
2023/06/21 05:53:41;;;;;;;12.80;7.50;;;21.40;99.90;;;;;;4996574;28;20018;-82
2023/06/21 05:56:06;;;;;;;18.95;7.72;;;21.60;99.90;;;;;;5004973;28;20023;-83
2023/06/21 05:58:32;;;;;;;13.40;7.25;;;21.70;99.90;;;;;;4990221;28;20060;-82
2023/06/21 06:00:57;;;;;;;11.75;6.97;;;21.90;99.90;;;;;;4986574;28;20026;-82
2023/06/21 06:03:24;;;;;;;16.45;7.40;;;22.00;99.90;;;;;;4996612;28;20085;-82
2023/06/21 06:05:50;;;;;;;15.23;6.18;;;22.10;99.90;;;;;;4989174;28;20030;-83
2023/06/21 06:08:16;;;;;;;14.77;6.03;;;22.30;99.90;;;;;;4989469;28;20065;-83
2023/06/21 06:10:42;;;;;;;13.73;6.30;;;22.40;99.90;;;;;;4989443;28;20034;-84
2023/06/21 06:13:07;;;;;;;16.80;7.13;;;22.50;99.90;;;;;;4990623;28;20385;-83
2023/06/21 06:15:33;;;;;;;12.50;6.30;;;22.60;99.90;;;;;;4988449;28;21298;-82
2023/06/21 06:17:58;;;;;;;14.10;6.35;;;22.80;99.90;;;;;;4987314;28;20042;-82
2023/06/21 06:20:26;;;;;;;14.02;6.72;;;22.90;99.90;;;;;;4985489;28;20105;-84
2023/06/21 06:22:51;;;;;;;14.48;6.70;;;23.00;99.90;;;;;;4990389;28;20055;-83
2023/06/21 06:25:17;;;;;;;14.63;6.60;;;23.10;99.90;;;;;;4989918;28;20062;-85
2023/06/21 06:27:43;;;;;;;16.63;6.75;;;23.10;99.90;;;;;;5009263;28;20392;-82
2023/06/21 06:30:08;;;;;;;15.35;6.60;;;23.20;99.90;;;;;;4996256;28;20081;-83
2023/06/21 06:32:34;;;;;;;15.52;6.50;;;23.30;99.90;;;;;;4992698;28;20027;-80
2023/06/21 06:35:00;;;;;;;17.67;6.55;;;23.40;99.90;;;;;;4997421;28;20033;-81
2023/06/21 06:37:26;;;;;;;20.45;6.68;;;23.50;99.90;;;;;;4996275;28;20026;-80
2023/06/21 06:39:53;;;;;;;18.45;6.55;;;23.60;99.90;;;;;;4996503;28;20410;-80
2023/06/21 06:42:18;;;;;;;15.77;6.40;;;23.70;99.90;;;;;;4996052;28;20044;-81
2023/06/21 06:44:44;;;;;;;20.33;6.15;;;23.70;99.90;;;;;;4997925;28;20058;-82
2023/06/21 06:47:09;;;;;;;14.73;6.07;;;23.80;99.90;;;;;;4996180;28;20030;-82
2023/06/21 06:49:35;;;;;;;16.75;6.55;;;23.90;99.90;;;;;;4997956;28;20487;-82
2023/06/21 06:52:01;;;;;;;14.85;5.32;;;24.00;99.90;;;;;;4992784;28;20030;-79
2023/06/21 06:54:26;;;;;;;18.17;6.22;;;24.10;99.90;;;;;;4992936;28;20033;-77
2023/06/21 06:56:52;;;;;;;13.15;5.35;;;24.20;99.90;;;;;;4988336;28;20027;-80
2023/06/21 06:59:17;;;;;;;12.52;5.90;;;24.30;99.90;;;;;;4992522;28;20046;-79
2023/06/21 07:01:43;;;;;;;19.13;6.57;;;24.30;99.90;;;;;;4978865;28;20368;-79
2023/06/21 07:04:08;;;;;;;12.93;5.65;;;24.40;99.90;;;;;;4984487;28;20482;-79
2023/06/21 07:06:34;;;;;;;17.42;6.32;;;24.40;99.90;;;;;;4994130;28;20042;-79
2023/06/21 07:09:02;;;;;;;14.98;5.90;;;24.40;99.90;;;;;;4989650;28;20042;-79
2023/06/21 07:11:28;;;;;;;12.57;6.05;;;24.50;99.90;;;;;;4994466;28;20035;-79
2023/06/21 07:13:53;;;;;;;11.90;5.35;;;24.50;99.90;;;;;;4993513;28;20104;-79
2023/06/21 07:16:20;;;;;;;17.65;5.60;;;24.70;99.90;;;;;;4991422;28;20133;-79
2023/06/21 07:18:46;;;;;;;15.52;5.88;;;24.80;99.90;;;;;;5005898;28;20113;-80
2023/06/21 07:21:11;;;;;;;13.40;5.70;;;24.80;99.90;;;;;;4995660;28;20140;-80
2023/06/21 07:23:37;;;;;;;24.35;7.45;;;24.80;99.90;;;;;;4994696;28;20053;-79
2023/06/21 07:26:03;;;;;;;14.25;5.90;;;24.90;99.90;;;;;;4989355;28;20080;-80
2023/06/21 07:28:29;;;;;;;15.23;5.68;;;25.00;99.90;;;;;;4982927;28;20390;-80
2023/06/21 07:30:54;;;;;;;17.38;5.80;;;25.00;99.90;;;;;;4984854;28;20096;-79
2023/06/21 07:33:21;;;;;;;16.50;5.35;;;25.10;99.90;;;;;;4983563;28;20026;-79
2023/06/21 07:35:47;;;;;;;10.18;5.22;;;25.20;99.90;;;;;;4986204;28;20462;-80
2023/06/21 07:38:13;;;;;;;16.85;6.03;;;25.30;99.90;;;;;;4987205;28;20030;-79
2023/06/21 07:40:38;;;;;;;14.98;6.28;;;25.40;99.90;;;;;;4987499;28;20179;-79
2023/06/21 07:43:05;;;;;;;15.77;5.72;;;25.40;99.90;;;;;;4988036;28;20026;-79
2023/06/21 07:45:31;;;;;;;14.48;6.18;;;25.40;99.90;;;;;;4987281;28;20880;-80
2023/06/21 07:47:56;;;;;;;15.35;6.00;;;25.50;99.90;;;;;;4988888;28;20037;-79
2023/06/21 07:50:25;;;;;;;15.15;5.78;;;25.50;99.90;;;;;;4987165;28;20039;-81
2023/06/21 07:52:50;;;;;;;16.20;6.50;;;25.50;99.90;;;;;;4988861;28;20454;-79
2023/06/21 07:55:16;;;;;;;9.70;5.90;;;25.60;99.90;;;;;;4988079;28;20034;-80
2023/06/21 07:57:43;;;;;;;14.75;6.25;;;25.60;99.90;;;;;;4988557;28;20026;-79
2023/06/21 08:00:11;;;;;;;12.15;5.40;;;25.70;99.90;;;;;;4988044;28;20061;-80
2023/06/21 08:02:37;;;;;;;17.75;6.25;;;25.70;99.90;;;;;;4990035;28;20530;-80
2023/06/21 08:05:03;;;;;;;12.93;5.80;;;25.70;99.90;;;;;;4990647;28;20038;-80
2023/06/21 08:07:29;;;;;;;11.52;5.18;;;25.80;99.90;;;;;;4986901;28;20116;-79
2023/06/21 08:09:54;;;;;;;15.00;5.78;;;25.90;99.90;;;;;;4984261;28;20030;-80
2023/06/21 08:12:20;;;;;;;13.05;5.85;;;26.00;99.90;;;;;;4986954;28;20033;-80
2023/06/21 08:14:45;;;;;;;15.02;6.28;;;26.00;99.90;;;;;;4988151;28;20030;-82
2023/06/21 08:17:11;;;;;;;12.88;5.38;;;26.10;99.90;;;;;;4987209;28;20423;-80
2023/06/21 08:19:36;;;;;;;14.82;5.90;;;26.30;99.90;;;;;;4988067;28;20513;-80
2023/06/21 08:22:02;;;;;;;12.60;5.93;;;26.40;99.90;;;;;;4988931;28;20088;-80
2023/06/21 08:24:27;;;;;;;10.80;5.10;;;26.40;99.90;;;;;;4988444;28;20026;-80
2023/06/21 08:26:53;;;;;;;12.05;5.40;;;26.40;99.90;;;;;;4988305;28;20042;-80
2023/06/21 08:29:18;;;;;;;15.50;5.88;;;26.50;99.90;;;;;;4987331;28;20037;-79
2023/06/21 08:31:44;;;;;;;12.82;5.13;;;26.60;99.90;;;;;;4989779;28;20049;-80
2023/06/21 08:34:09;;;;;;;15.38;5.35;;;26.60;99.90;;;;;;4987260;28;20026;-80
2023/06/21 08:36:35;;;;;;;17.30;6.05;;;26.70;99.90;;;;;;4987336;28;20064;-80
2023/06/21 08:39:00;;;;;;;16.08;5.90;;;26.70;99.90;;;;;;4986304;28;20411;-80
2023/06/21 08:41:26;;;;;;;12.40;5.38;;;26.80;99.90;;;;;;4988664;28;20039;-80
2023/06/21 08:43:52;;;;;;;13.43;5.95;;;26.80;99.90;;;;;;4986285;28;20041;-80
2023/06/21 08:46:20;;;;;;;13.88;6.15;;;26.90;99.90;;;;;;4983390;28;20074;-81
2023/06/21 08:48:50;;;;;;;10.63;5.13;;;27.00;99.90;;;;;;4983822;28;20033;-80
2023/06/21 08:51:16;;;;;;;12.15;5.32;;;27.00;99.90;;;;;;4983336;28;20026;-80
2023/06/21 08:53:49;;;;;;;14.82;5.40;;;27.10;99.90;;;;;;4983627;28;20101;-81
2023/06/21 08:56:20;;;;;;;14.73;5.65;;;27.20;99.90;;;;;;4982345;28;20078;-81
2023/06/21 08:58:54;;;;;;;15.07;6.20;;;27.30;99.90;;;;;;4983805;28;20034;-80
2023/06/21 09:01:23;;;;;;;16.67;5.72;;;27.20;99.90;;;;;;4982474;28;20038;-80
2023/06/21 09:03:59;;;;;;;12.93;6.43;;;27.20;99.90;;;;;;4977526;28;20418;-80
2023/06/21 09:06:26;;;;;;;16.33;6.15;;;27.20;99.90;;;;;;4977393;28;20782;-80
2023/06/21 09:08:55;;;;;;;17.52;5.55;;;27.30;99.90;;;;;;4979231;28;20181;-80
2023/06/21 09:11:22;;;;;;;12.23;6.38;;;27.40;99.90;;;;;;4982914;28;20037;-80
2023/06/21 09:13:48;;;;;;;13.32;6.05;;;27.40;99.90;;;;;;4979751;28;20041;-81
2023/06/21 09:16:14;;;;;;;12.82;6.25;;;27.50;99.90;;;;;;4980576;28;20573;-81
2023/06/21 09:18:40;;;;;;;13.18;5.75;;;27.60;99.90;;;;;;4982111;28;20125;-81
2023/06/21 09:21:08;;;;;;;16.20;6.35;;;27.80;99.90;;;;;;4982650;28;20034;-81
2023/06/21 09:23:39;;;;;;;12.13;5.80;;;27.80;99.90;;;;;;4982178;28;20090;-81
2023/06/21 09:26:04;;;;;;;11.68;5.97;;;27.90;99.90;;;;;;4983160;28;20041;-80
2023/06/21 09:28:31;;;;;;;15.43;5.97;;;28.00;99.90;;;;;;4981048;28;20127;-81
2023/06/21 09:30:56;;;;;;;15.63;5.30;;;28.00;99.90;;;;;;4981878;28;20049;-80
2023/06/21 09:33:24;;;;;;;9.63;5.30;;;28.10;99.90;;;;;;4980875;28;20030;-81
2023/06/21 09:35:50;;;;;;;15.48;6.38;;;28.30;99.90;;;;;;4983249;28;20038;-80
2023/06/21 09:38:22;;;;;;;25.00;6.65;;;28.40;99.90;;;;;;4982327;28;20061;-80
2023/06/21 09:40:48;;;;;;;12.60;5.43;;;28.60;99.90;;;;;;4981546;28;20040;-80
2023/06/21 09:43:14;;;;;;;15.50;6.38;;;28.80;99.90;;;;;;4982005;28;20021;-82
2023/06/21 09:45:40;;;;;;;13.25;6.60;;;29.00;99.90;;;;;;4981380;28;20065;-80
2023/06/21 09:48:06;;;;;;;16.67;6.63;;;29.30;99.90;;;;;;4984051;28;20026;-81
2023/06/21 09:50:44;;;;;;;14.10;6.95;;;29.70;99.90;;;;;;4982076;28;20050;-81
2023/06/21 09:53:11;;;;;;;14.68;6.30;;;29.90;99.90;;;;;;4980115;28;20062;-81
2023/06/21 09:55:43;;;;;;;13.10;6.25;;;29.90;99.90;;;;;;4977692;28;21254;-81
2023/06/21 09:58:08;;;;;;;11.38;5.78;;;29.80;99.90;;;;;;4981082;28;20038;-80
2023/06/21 10:00:35;;;;;;;13.55;5.88;;;29.40;99.90;;;;;;4983863;28;20092;-80
2023/06/21 10:03:02;;;;;;;13.80;6.13;;;29.20;99.90;;;;;;4988104;28;20029;-87
2023/06/21 10:05:28;;;;;;;15.00;6.70;;;28.90;99.90;;;;;;4988271;28;20081;-78
2023/06/21 10:07:54;;;;;;;16.00;6.32;;;28.60;99.90;;;;;;4985836;28;20421;-74
2023/06/21 10:10:20;;;;;;;16.83;6.78;;;28.30;99.90;;;;;;4985075;28;20763;-76
2023/06/21 10:12:52;;;;;;;16.95;6.10;;;28.20;99.90;;;;;;4985740;28;20037;-76
2023/06/21 10:15:18;;;;;;;16.00;6.20;;;27.90;99.90;;;;;;4986292;28;20137;-77
2023/06/21 10:17:46;;;;;;;12.65;5.80;;;27.70;99.90;;;;;;4983412;28;20042;-76
2023/06/21 10:20:14;;;;;;;14.75;6.47;;;27.60;99.90;;;;;;4985074;28;20030;-76
2023/06/21 10:22:43;;;;;;;15.82;6.60;;;27.40;99.90;;;;;;4985219;28;20137;-76
2023/06/21 10:25:10;;;;;;;14.38;6.38;;;27.30;99.90;;;;;;4985545;28;20227;-76
2023/06/21 10:27:37;;;;;;;11.40;5.63;;;27.20;99.90;;;;;;4985433;28;20057;-76
2023/06/21 10:30:04;;;;;;;18.05;5.75;;;27.20;99.90;;;;;;4987891;28;20030;-75
2023/06/21 10:32:34;;;;;;;14.43;6.00;;;27.20;99.90;;;;;;4987845;28;20767;-76
2023/06/21 10:35:17;;;;;;;20.50;4.72;;;27.20;99.90;;;;;;4985284;28;20052;-76
2023/06/21 10:38:05;;;;;;;17.57;4.53;;;27.00;99.90;;;;;;4987848;28;20121;-75
2023/06/21 10:40:35;;;;;;;19.30;3.92;;;26.80;99.90;;;;;;4988445;28;20026;-76
2023/06/21 10:43:01;;;;;;;20.13;5.00;;;26.20;99.90;;;;;;4988003;28;20029;-76
2023/06/21 10:45:28;;;;;;;16.75;4.15;;;25.50;99.90;;;;;;4986927;28;20134;-77
2023/06/21 10:47:57;;;;;;;17.05;4.68;;;25.00;99.90;;;;;;4987247;28;20382;-77
2023/06/21 10:50:23;;;;;;;21.98;5.22;;;24.70;99.90;;;;;;4987034;28;20026;-77
2023/06/21 10:52:53;;;;;;;23.33;5.75;;;24.40;99.90;;;;;;4987702;28;20442;-76
2023/06/21 10:55:21;;;;;;;20.45;5.78;;;24.30;99.90;;;;;;4987297;28;20025;-74
2023/06/21 10:57:53;;;;;;;23.40;6.00;;;24.30;99.90;;;;;;4989684;28;20034;-76
2023/06/21 11:00:21;;;;;;;26.60;6.43;;;24.40;99.90;;;;;;4990027;28;20033;-76
2023/06/21 11:02:47;;;;;;;23.50;5.85;;;24.50;99.90;;;;;;4989239;28;20034;-76
2023/06/21 11:05:17;;;;;;;28.02;6.95;;;24.70;99.90;;;;;;4989386;28;20057;-76
2023/06/21 11:07:56;;;;;;;25.30;6.28;;;24.70;99.90;;;;;;4986531;28;20068;-76
2023/06/21 11:10:42;;;;;;;22.75;5.55;;;25.00;99.90;;;;;;4989206;28;20068;-77
2023/06/21 11:13:09;;;;;;;16.80;4.93;;;25.30;99.90;;;;;;4986644;28;20038;-76
2023/06/21 11:15:42;;;;;;;16.92;4.97;;;25.50;99.90;;;;;;4986358;28;20481;-77
2023/06/21 11:18:09;;;;;;;19.48;5.43;;;25.70;99.90;;;;;;4987852;28;20038;-76
2023/06/21 11:20:45;;;;;;;17.85;5.05;;;25.70;99.90;;;;;;4988921;28;20018;-77
2023/06/21 11:23:25;;;;;;;17.77;5.00;;;25.90;99.90;;;;;;4988275;28;20447;-76
2023/06/21 11:25:58;;;;;;;20.88;5.35;;;25.90;99.90;;;;;;4987166;28;20041;-77
2023/06/21 11:28:28;;;;;;;19.95;4.43;;;26.00;99.90;;;;;;4987651;28;20045;-76
2023/06/21 11:31:12;;;;;;;19.25;4.47;;;26.10;99.90;;;;;;4986730;28;20576;-77
2023/06/21 11:33:49;;;;;;;20.08;4.90;;;26.30;99.90;;;;;;4987220;28;20068;-77
2023/06/21 11:36:17;;;;;;;27.67;5.32;;;26.70;99.90;;;;;;4987237;28;20137;-77
2023/06/21 11:39:02;;;;;;;18.58;4.95;;;26.90;99.90;;;;;;4987556;28;21412;-77
2023/06/21 11:41:45;;;;;;;16.23;4.93;;;26.90;99.90;;;;;;4986513;28;20077;-77
2023/06/21 11:44:11;;;;;;;22.70;5.88;;;26.80;99.90;;;;;;4988570;28;20041;-78
2023/06/21 11:46:39;;;;;;;21.27;5.18;;;26.70;99.90;;;;;;4986748;28;20816;-77
2023/06/21 11:49:05;;;;;;;28.55;6.22;;;26.60;99.90;;;;;;4987792;28;20049;-77
2023/06/21 11:51:32;;;;;;;18.15;4.63;;;26.70;99.90;;;;;;4988263;28;20030;-77
2023/06/21 11:53:58;;;;;;;21.73;5.25;;;26.70;99.90;;;;;;4987897;28;20030;-77
2023/06/21 11:56:30;;;;;;;20.20;5.28;;;26.80;99.90;;;;;;4986455;28;20115;-77
2023/06/21 11:58:56;;;;;;;24.40;5.38;;;27.00;99.90;;;;;;4987676;28;20072;-77
2023/06/21 12:01:22;;;;;;;18.42;5.78;;;27.30;99.90;;;;;;4986662;28;20121;-77
2023/06/21 12:03:50;;;;;;;16.08;4.90;;;27.70;99.90;;;;;;4987413;28;20029;-77
2023/06/21 12:06:16;;;;;;;22.70;5.38;;;27.90;99.90;;;;;;4987394;28;20034;-77
2023/06/21 12:08:42;;;;;;;20.33;5.07;;;28.30;99.90;;;;;;4986997;28;20033;-79
2023/06/21 12:11:09;;;;;;;26.48;6.05;;;28.40;99.90;;;;;;4989687;28;20038;-80
2023/06/21 12:13:37;;;;;;;18.00;5.22;;;28.60;99.90;;;;;;4988183;28;20491;-80
2023/06/21 12:16:05;;;;;;;16.67;5.03;;;28.60;99.90;;;;;;4989374;28;20034;-80
2023/06/21 12:18:36;;;;;;;23.95;5.45;;;28.60;99.90;;;;;;4987258;28;20026;-80
2023/06/21 12:21:03;;;;;;;22.20;5.30;;;28.60;99.90;;;;;;4987176;28;20026;-79
2023/06/21 12:23:30;;;;;;;20.13;4.60;;;28.60;99.90;;;;;;4988250;28;20037;-79
2023/06/21 12:26:00;;;;;;;17.38;5.47;;;28.70;99.90;;;;;;4987122;28;20034;-79
2023/06/21 12:28:26;;;;;;;21.30;4.70;;;28.60;99.90;;;;;;4988433;28;20023;-79
2023/06/21 12:30:58;;;;;;;17.88;5.18;;;28.80;99.90;;;;;;4985604;28;20175;-78
2023/06/21 12:33:28;;;;;;;19.00;5.30;;;28.70;99.90;;;;;;4985788;28;20030;-79
2023/06/21 12:36:17;;;;;;;15.40;4.28;;;28.70;99.90;;;;;;4985846;28;20034;-79
2023/06/21 12:39:00;;;;;;;19.20;4.60;;;28.70;99.90;;;;;;4985531;28;20068;-79